Time;durP1;ratioP1;P1;durP2;ratioP2;P2;SDS_P1;SDS_P2;PMS_P1;PMS_P2;Temp;Humidity;BMP_temperature;BMP_pressure;BME280_temperature;BME280_humidity;BME280_pressure;Samples;Min_cycle;Max_cycle;Signal;HPM_P1;HPM_P2
2023/12/25 00:02:16;;;;;;;1999.90;999.90;;;;;;;12.76;100.00;100357.72;10458861;28;20055;-67
2023/12/25 00:07:19;;;;;;;1999.90;999.90;;;;;;;12.76;100.00;100360.34;10458669;28;20055;-66
2023/12/25 00:12:23;;;;;;;1999.90;999.90;;;;;;;12.77;100.00;100357.59;10440934;28;20504;-66
2023/12/25 00:17:25;;;;;;;1999.90;999.90;;;;;;;12.74;100.00;100357.00;10458183;28;20129;-67
2023/12/25 00:22:29;;;;;;;1999.90;999.90;;;;;;;12.67;100.00;100356.59;10464342;22;20045;-67
2023/12/25 00:27:31;;;;;;;1999.90;999.90;;;;;;;12.89;100.00;100347.16;10456737;28;20403;-67
2023/12/25 00:32:34;;;;;;;1999.90;999.90;;;;;;;12.70;100.00;100326.66;10457611;28;20067;-66
2023/12/25 00:37:37;;;;;;;1999.90;999.90;;;;;;;12.67;100.00;100346.09;10457433;28;20049;-67
2023/12/25 00:42:39;;;;;;;1999.90;999.90;;;;;;;12.39;100.00;100352.53;10457324;28;20076;-66
2023/12/25 00:47:41;;;;;;;1999.90;999.90;;;;;;;12.38;100.00;100367.44;10457179;28;20147;-67
2023/12/25 00:52:44;;;;;;;1999.90;999.90;;;;;;;12.37;100.00;100392.03;10457101;28;20052;-67
2023/12/25 00:57:46;;;;;;;1999.90;999.90;;;;;;;12.32;100.00;100388.03;10455620;28;20049;-66
2023/12/25 01:02:49;;;;;;;1999.90;999.90;;;;;;;12.47;100.00;100381.69;10456911;28;20063;-66
2023/12/25 01:07:51;;;;;;;1999.90;999.90;;;;;;;12.31;100.00;100402.13;10456631;28;20119;-66
2023/12/25 01:12:54;;;;;;;1999.90;999.90;;;;;;;12.37;100.00;100373.66;10456947;28;20056;-66
2023/12/25 01:17:57;;;;;;;1999.90;999.90;;;;;;;12.25;100.00;100385.00;10455142;28;20048;-67
2023/12/25 01:23:00;;;;;;;1999.90;999.90;;;;;;;12.39;100.00;100400.63;10456465;28;20103;-66
2023/12/25 01:28:02;;;;;;;1999.90;999.90;;;;;;;12.38;100.00;100393.69;10456186;28;20411;-67
2023/12/25 01:33:04;;;;;;;1999.90;999.90;;;;;;;12.41;100.00;100411.03;10454920;28;20057;-67
2023/12/25 01:38:07;;;;;;;1999.90;999.90;;;;;;;12.46;100.00;100411.53;10454947;28;20053;-66
2023/12/25 01:43:09;;;;;;;1999.90;999.90;;;;;;;12.43;100.00;100407.31;10457253;28;20152;-66
2023/12/25 01:48:12;;;;;;;1999.90;999.90;;;;;;;12.41;100.00;100417.09;10464265;28;20055;-66
2023/12/25 01:53:15;;;;;;;1999.90;999.90;;;;;;;12.41;100.00;100419.72;10462742;28;20049;-66
2023/12/25 01:58:17;;;;;;;1999.90;999.90;;;;;;;12.35;100.00;100422.78;10463687;28;20483;-67
2023/12/25 02:03:20;;;;;;;1999.90;999.90;;;;;;;12.44;100.00;100421.31;10462549;28;20045;-66
2023/12/25 02:08:22;;;;;;;1999.90;999.90;;;;;;;12.48;100.00;100424.56;10463491;28;20053;-66
2023/12/25 02:13:25;;;;;;;1999.90;999.90;;;;;;;12.45;100.00;100426.44;10463172;28;20506;-66
2023/12/25 02:18:27;;;;;;;1999.90;999.90;;;;;;;12.43;100.00;100436.22;10462955;28;20124;-66
2023/12/25 02:23:31;;;;;;;1999.90;999.90;;;;;;;12.60;100.00;100382.47;10461937;28;20080;-66
2023/12/25 02:28:33;;;;;;;1999.90;999.90;;;;;;;12.51;100.00;100403.31;10462443;28;20384;-66
2023/12/25 02:33:35;;;;;;;1999.90;999.90;;;;;;;12.45;100.00;100408.03;10462477;28;20051;-66
2023/12/25 02:38:38;;;;;;;1999.90;999.90;;;;;;;12.49;100.00;100424.44;10462788;28;20098;-66
2023/12/25 02:43:40;;;;;;;1999.90;999.90;;;;;;;12.53;100.00;100431.16;10462081;28;20055;-66
2023/12/25 02:48:43;;;;;;;1999.90;999.90;;;;;;;12.44;100.00;100422.16;10462009;28;20045;-66
2023/12/25 02:53:45;;;;;;;1999.90;999.90;;;;;;;12.60;100.00;100414.00;10461066;28;20464;-66
2023/12/25 02:58:48;;;;;;;1999.90;999.90;;;;;;;12.56;100.00;100411.72;10461240;28;20480;-66
2023/12/25 03:03:50;;;;;;;1999.90;999.90;;;;;;;12.43;100.00;100412.56;10460269;28;20048;-66
2023/12/25 03:08:53;;;;;;;1999.90;999.90;;;;;;;12.43;100.00;100420.44;10461035;28;20045;-67
2023/12/25 03:13:55;;;;;;;1999.90;999.90;;;;;;;12.50;100.00;100441.03;10461039;28;20045;-66
2023/12/25 03:18:57;;;;;;;1999.90;999.90;;;;;;;12.46;100.00;100429.91;10459816;28;20369;-66
2023/12/25 03:24:00;;;;;;;1999.90;999.90;;;;;;;12.53;100.00;100436.41;10460993;28;20140;-66
2023/12/25 03:29:02;;;;;;;1999.90;999.90;;;;;;;12.49;100.00;100449.84;10460224;28;20547;-66
2023/12/25 03:34:05;;;;;;;1999.90;999.90;;;;;;;12.52;100.00;100455.72;10458949;28;20049;-66
2023/12/25 03:39:07;;;;;;;1999.90;999.90;;;;;;;12.48;100.00;100450.81;10459906;28;20045;-65
2023/12/25 03:44:10;;;;;;;1999.90;999.90;;;;;;;12.42;100.00;100488.81;10459714;28;20056;-66
2023/12/25 03:49:12;;;;;;;1999.90;999.90;;;;;;;12.59;100.00;100478.00;10459358;28;20048;-66
2023/12/25 03:54:15;;;;;;;1999.90;999.90;;;;;;;12.58;100.00;100476.28;10459221;28;20079;-66
2023/12/25 03:59:17;;;;;;;1999.90;999.90;;;;;;;12.66;100.00;100477.53;10458863;28;20404;-66
2023/12/25 04:04:19;;;;;;;1999.90;999.90;;;;;;;12.59;100.00;100479.75;10458930;28;20532;-66
2023/12/25 04:09:22;;;;;;;1999.90;999.90;;;;;;;12.51;100.00;100480.31;10457834;28;20083;-66
2023/12/25 04:14:24;;;;;;;1999.90;999.90;;;;;;;12.42;100.00;100473.94;10458691;28;20055;-66
2023/12/25 04:19:26;;;;;;;1999.90;999.90;;;;;;;12.56;100.00;100462.44;10458207;28;20052;-66
2023/12/25 04:24:29;;;;;;;1999.90;999.90;;;;;;;12.60;100.00;100458.63;10458435;28;20060;-66
2023/12/25 04:29:31;;;;;;;1999.90;999.90;;;;;;;12.61;100.00;100468.22;10458022;28;20049;-66
2023/12/25 04:34:34;;;;;;;1999.90;999.90;;;;;;;12.40;100.00;100452.16;10456549;28;20079;-66
2023/12/25 04:39:36;;;;;;;1999.90;999.90;;;;;;;12.40;100.00;100454.78;10456978;28;20045;-66
2023/12/25 04:44:38;;;;;;;1999.90;999.90;;;;;;;12.37;100.00;100451.56;10457237;28;20053;-66
2023/12/25 04:49:41;;;;;;;1999.90;999.90;;;;;;;12.41;100.00;100445.16;10457393;28;20064;-66
2023/12/25 04:54:43;;;;;;;1999.90;999.90;;;;;;;12.37;100.00;100460.28;10457073;28;20049;-66
2023/12/25 04:59:45;;;;;;;1999.90;999.90;;;;;;;12.47;100.00;100454.38;10456011;28;20045;-66
2023/12/25 05:04:48;;;;;;;1999.90;999.90;;;;;;;12.57;100.00;100432.59;10456717;28;20051;-66
2023/12/25 05:09:50;;;;;;;1999.90;999.90;;;;;;;12.63;100.00;100432.16;10456639;28;20045;-66
2023/12/25 05:14:53;;;;;;;1999.90;999.90;;;;;;;12.44;100.00;100432.66;10456936;28;20131;-66
2023/12/25 05:19:55;;;;;;;1999.90;999.90;;;;;;;12.50;100.00;100454.16;10454907;28;20049;-66
2023/12/25 05:24:57;;;;;;;1999.90;999.90;;;;;;;12.50;100.00;100446.28;10456599;28;20063;-66
2023/12/25 05:30:00;;;;;;;1999.90;999.90;;;;;;;12.31;100.00;100454.63;10454986;28;20493;-66
2023/12/25 05:35:04;;;;;;;1999.90;999.90;;;;;;;12.42;100.00;100460.81;10454923;28;20064;-66
2023/12/25 05:40:06;;;;;;;1999.90;999.90;;;;;;;12.26;100.00;100458.41;10455084;28;20133;-66
2023/12/25 05:45:09;;;;;;;1999.90;999.90;;;;;;;12.23;100.00;100465.66;10455861;28;20055;-66
2023/12/25 05:50:11;;;;;;;1999.90;999.90;;;;;;;12.27;100.00;100473.22;10455986;28;20045;-65
2023/12/25 05:55:14;;;;;;;1999.90;999.90;;;;;;;12.19;100.00;100480.78;10454596;28;20052;-65
2023/12/25 06:00:17;;;;;;;1999.90;999.90;;;;;;;12.05;100.00;100486.97;10455912;28;20071;-66
2023/12/25 06:05:19;;;;;;;1999.90;999.90;;;;;;;11.94;100.00;100492.13;10455713;28;20053;-66
2023/12/25 06:10:22;;;;;;;1999.90;999.90;;;;;;;11.92;100.00;100499.25;10455380;28;20045;-66
2023/12/25 06:15:24;;;;;;;1999.90;999.90;;;;;;;11.86;100.00;100510.94;10455346;28;20052;-66
2023/12/25 06:20:27;;;;;;;1999.90;999.90;;;;;;;11.62;100.00;100510.81;10454023;28;20045;-66
2023/12/25 06:25:30;;;;;;;1999.90;999.90;;;;;;;11.26;100.00;100520.16;10455580;28;20052;-66
2023/12/25 06:30:32;;;;;;;1999.90;999.90;;;;;;;11.28;100.00;100525.28;10458445;28;20041;-67
2023/12/25 06:35:34;;;;;;;1999.90;999.90;;;;;;;11.07;100.00;100530.97;10444760;28;20404;-66
2023/12/25 06:40:37;;;;;;;1999.90;999.90;;;;;;;11.12;100.00;100513.16;10462250;28;20048;-66
2023/12/25 06:45:39;;;;;;;1999.90;999.90;;;;;;;10.98;100.00;100515.84;10461930;28;20472;-66
2023/12/25 06:50:41;;;;;;;1999.90;999.90;;;;;;;10.92;100.00;100503.13;10462055;28;20051;-66
2023/12/25 06:55:44;;;;;;;1999.90;999.90;;;;;;;10.83;100.00;100512.41;10462222;28;20049;-66
2023/12/25 07:00:46;;;;;;;1999.90;999.90;;;;;;;10.69;100.00;100517.66;10461587;28;20055;-66
2023/12/25 07:05:49;;;;;;;1999.90;999.90;;;;;;;10.62;100.00;100522.44;10461503;28;20389;-66
2023/12/25 07:10:51;;;;;;;1999.90;999.90;;;;;;;10.59;100.00;100501.69;10460943;28;20484;-66
2023/12/25 07:15:54;;;;;;;1999.90;999.90;;;;;;;10.74;100.00;100519.09;10459820;28;20150;-66
2023/12/25 07:20:56;;;;;;;1999.90;999.90;;;;;;;10.64;100.00;100517.09;10460617;28;20127;-66
2023/12/25 07:25:59;;;;;;;1999.90;999.90;;;;;;;10.69;100.00;100518.53;10460417;28;20057;-66
2023/12/25 07:31:04;;;;;;;1999.90;999.90;;;;;;;10.63;100.00;100524.13;10459151;28;20056;-66
2023/12/25 07:36:07;;;;;;;1999.90;999.90;;;;;;;10.66;100.00;100542.28;10459910;28;20045;-66
2023/12/25 07:41:10;;;;;;;1999.90;999.90;;;;;;;10.55;100.00;100552.56;10459850;28;20061;-66
2023/12/25 07:46:12;;;;;;;1999.90;999.90;;;;;;;10.53;100.00;100559.66;10458448;28;20099;-66
2023/12/25 07:51:15;;;;;;;1999.90;999.90;;;;;;;10.46;100.00;100555.75;10459003;28;20129;-66
2023/12/25 07:56:18;;;;;;;1999.90;999.90;;;;;;;10.59;100.00;100554.91;10459133;28;20052;-66
2023/12/25 08:01:22;;;;;;;1999.90;999.90;;;;;;;10.60;100.00;100563.59;10459158;28;20055;-66
2023/12/25 08:06:24;;;;;;;1999.90;999.90;;;;;;;10.50;100.00;100567.72;10459014;28;20055;-66
2023/12/25 08:11:27;;;;;;;1999.90;999.90;;;;;;;10.57;100.00;100562.00;10457380;28;20053;-65
2023/12/25 08:16:30;;;;;;;1999.90;999.90;;;;;;;10.71;100.00;100568.19;10458575;28;20083;-65
2023/12/25 08:21:32;;;;;;;1999.90;999.90;;;;;;;10.70;100.00;100569.94;10457957;28;20057;-65
2023/12/25 08:26:35;;;;;;;1999.90;999.90;;;;;;;10.73;100.00;100579.41;10457347;28;20407;-65
2023/12/25 08:31:39;;;;;;;1999.90;999.90;;;;;;;10.74;100.00;100591.53;10457990;28;20052;-65
2023/12/25 08:36:42;;;;;;;1999.90;999.90;;;;;;;10.64;100.00;100603.50;10458345;28;20136;-65
2023/12/25 08:41:44;;;;;;;1999.90;999.90;;;;;;;10.86;100.00;100613.50;10457419;28;20399;-65
2023/12/25 08:46:47;;;;;;;1999.90;999.90;;;;;;;10.67;100.00;100616.41;10457428;28;20049;-66
2023/12/25 08:51:49;;;;;;;1999.90;999.90;;;;;;;10.75;100.00;100619.41;10456851;28;20128;-65
2023/12/25 08:56:52;;;;;;;1999.90;999.90;;;;;;;10.65;100.00;100628.75;10455850;28;20041;-66
2023/12/25 09:01:54;;;;;;;1999.90;999.90;;;;;;;10.69;100.00;100623.25;10457517;28;20527;-66
2023/12/25 09:06:57;;;;;;;1999.90;999.90;;;;;;;10.82;100.00;100623.34;10457294;28;20080;-65
2023/12/25 09:11:59;;;;;;;1999.90;999.90;;;;;;;10.78;100.00;100622.69;10456433;28;20049;-66
2023/12/25 09:17:01;;;;;;;1999.90;999.90;;;;;;;10.76;100.00;100642.06;10456337;28;20049;-66
2023/12/25 09:22:08;;;;;;;1999.90;999.90;;;;;;;10.67;100.00;100647.84;10456233;28;20061;-66
2023/12/25 09:27:11;;;;;;;1999.90;999.90;;;;;;;10.72;100.00;100649.22;10455056;28;20396;-65
2023/12/25 09:32:13;;;;;;;1999.90;999.90;;;;;;;10.64;100.00;100659.34;10440152;28;20080;-66
2023/12/25 09:37:15;;;;;;;1999.90;999.90;;;;;;;10.76;100.00;100671.69;10434415;28;20510;-65
2023/12/25 09:42:18;;;;;;;1999.90;999.90;;;;;;;10.74;100.00;100678.81;10437364;28;20045;-67
2023/12/25 09:47:21;;;;;;;1999.90;999.90;;;;;;;10.92;100.00;100686.47;10413901;28;20037;-67
2023/12/25 09:52:24;;;;;;;1999.90;999.90;;;;;;;11.06;100.00;100680.41;10452499;28;20072;-67
2023/12/25 09:57:27;;;;;;;1999.90;999.90;;;;;;;10.69;100.00;100699.19;10414045;28;20049;-67
2023/12/25 10:02:29;;;;;;;1999.90;999.90;;;;;;;10.99;100.00;100689.56;10436374;28;20483;-67
2023/12/25 10:07:32;;;;;;;1999.90;999.90;;;;;;;11.02;100.00;100661.41;10436796;28;20049;-67
2023/12/25 10:12:34;;;;;;;1999.90;999.90;;;;;;;11.11;100.00;100675.72;10456244;28;20051;-67
2023/12/25 10:17:37;;;;;;;1999.90;999.90;;;;;;;10.87;100.00;100668.41;10462537;28;20040;-65
2023/12/25 10:22:40;;;;;;;1999.90;999.90;;;;;;;11.03;100.00;100670.97;10460870;28;20057;-64
2023/12/25 10:27:43;;;;;;;1999.90;999.90;;;;;;;11.07;100.00;100674.22;10461945;28;20045;-64
2023/12/25 10:32:49;;;;;;;1999.90;999.90;;;;;;;11.06;100.00;100683.88;10462630;28;20052;-65
2023/12/25 10:37:52;;;;;;;1999.90;999.90;;;;;;;10.91;100.00;100683.03;10445050;28;20076;-64
2023/12/25 10:42:56;;;;;;;1999.90;999.90;;;;;;;11.33;100.00;100669.97;10462178;28;20514;-64
2023/12/25 10:48:02;;;;;;;1999.90;999.90;;;;;;;11.24;100.00;100652.22;10461951;28;20075;-64
2023/12/25 10:53:05;;;;;;;1999.90;999.90;;;;;;;11.52;100.00;100654.78;10460801;28;20056;-64
2023/12/25 10:58:17;;;;;;;1999.90;999.90;;;;;;;11.53;100.00;100634.63;10460503;28;20056;-64
2023/12/25 11:03:21;;;;;;;1999.90;999.90;;;;;;;11.18;100.00;100642.97;10443911;28;20060;-64
2023/12/25 11:08:23;;;;;;;1999.90;999.90;;;;;;;11.37;100.00;100652.31;10443815;28;20049;-64
2023/12/25 11:13:40;;;;;;;1999.90;999.90;;;;;;;11.24;100.00;100673.19;10460206;28;20135;-64
2023/12/25 11:18:43;;;;;;;1999.90;999.90;;;;;;;11.03;100.00;100684.06;10460898;28;20587;-64
2023/12/25 11:23:48;;;;;;;1999.90;999.90;;;;;;;10.93;100.00;100672.47;10459254;28;20068;-64
2023/12/25 11:29:07;;;;;;;1999.90;999.90;;;;;;;11.06;100.00;100680.41;10459228;28;20068;-64
2023/12/25 11:34:26;;;;;;;1999.90;999.90;;;;;;;10.96;100.00;100669.63;10458975;28;20136;-64
2023/12/25 11:39:29;;;;;;;1999.90;999.90;;;;;;;11.10;100.00;100663.56;10459990;28;20045;-64
2023/12/25 11:44:33;;;;;;;1999.90;999.90;;;;;;;11.03;100.00;100677.97;10458470;28;20408;-64
2023/12/25 11:49:39;;;;;;;1999.90;999.90;;;;;;;10.93;100.00;100672.47;10458462;28;20484;-64
2023/12/25 11:54:42;;;;;;;1999.90;999.90;;;;;;;10.94;100.00;100663.66;10459323;28;20488;-64
2023/12/25 11:59:46;;;;;;;1999.90;999.90;;;;;;;11.08;100.00;100673.31;10457983;28;20041;-66
2023/12/25 12:04:48;;;;;;;1999.90;999.90;;;;;;;10.94;100.00;100661.91;10458304;28;20064;-66
2023/12/25 12:09:51;;;;;;;1999.90;999.90;;;;;;;10.92;100.00;100661.13;10458849;28;20048;-64
2023/12/25 12:14:53;;;;;;;1999.90;999.90;;;;;;;10.92;100.00;100653.25;10457282;28;20055;-63
2023/12/25 12:19:56;;;;;;;1999.90;999.90;;;;;;;10.96;100.00;100646.91;10457008;28;20464;-64
2023/12/25 12:25:15;;;;;;;1999.90;999.90;;;;;;;10.88;100.00;100653.56;10457021;28;20053;-64
2023/12/25 12:30:17;;;;;;;1999.90;999.90;;;;;;;11.02;100.00;100648.31;10456293;28;20073;-64
2023/12/25 12:35:20;;;;;;;1999.90;999.90;;;;;;;11.40;100.00;100657.34;10457733;28;20531;-64
2023/12/25 12:40:25;;;;;;;1999.90;999.90;;;;;;;11.15;100.00;100664.97;10396210;22;20050;-63
2023/12/25 12:45:27;;;;;;;1999.90;999.90;;;;;;;11.45;100.00;100668.41;10374942;28;20511;-63
2023/12/25 12:50:30;;;;;;;1999.90;999.90;;;;;;;11.42;100.00;100663.34;10375235;28;20132;-66
2023/12/25 12:55:36;;;;;;;1999.90;999.90;;;;;;;11.41;100.00;100648.53;10374340;28;20060;-66
2023/12/25 13:00:38;;;;;;;1999.90;999.90;;;;;;;11.17;100.00;100649.13;10374739;28;20418;-66
2023/12/25 13:05:41;;;;;;;1999.90;999.90;;;;;;;11.11;100.00;100639.03;10374320;28;20054;-66
2023/12/25 13:10:43;;;;;;;1999.90;999.90;;;;;;;11.31;100.00;100643.91;10374701;28;20054;-66
2023/12/25 13:15:45;;;;;;;1999.90;999.90;;;;;;;11.18;100.00;100637.75;10375033;28;20124;-66
2023/12/25 13:20:48;;;;;;;1999.90;999.90;;;;;;;11.31;100.00;100630.78;10374368;28;20077;-66
2023/12/25 13:25:50;;;;;;;1999.90;999.90;;;;;;;11.31;100.00;100630.78;10374425;28;20057;-66
2023/12/25 13:30:52;;;;;;;1999.90;999.90;;;;;;;11.33;100.00;100633.28;10374610;28;20052;-66
2023/12/25 13:35:55;;;;;;;1999.90;999.90;;;;;;;11.33;100.00;100641.16;10374353;28;20058;-66
2023/12/25 13:40:58;;;;;;;1999.90;999.90;;;;;;;11.33;100.00;100631.53;10380283;28;20085;-66
2023/12/25 13:46:00;;;;;;;1999.90;999.90;;;;;;;11.62;100.00;100634.06;10382392;28;20133;-66
2023/12/25 13:51:03;;;;;;;1999.90;999.90;;;;;;;11.55;100.00;100643.28;10382177;28;20065;-66
2023/12/25 13:56:07;;;;;;;1999.90;999.90;;;;;;;11.42;100.00;100656.31;10382085;28;20073;-66
2023/12/25 14:01:09;;;;;;;1999.90;999.90;;;;;;;11.58;100.00;100666.66;10380450;28;20069;-66
2023/12/25 14:06:12;;;;;;;1999.90;999.90;;;;;;;11.75;100.00;100673.47;10381533;28;20129;-66
2023/12/25 14:11:14;;;;;;;1999.90;999.90;;;;;;;11.53;100.00;100650.38;10381418;28;20168;-66
2023/12/25 14:16:17;;;;;;;1999.90;999.90;;;;;;;11.68;100.00;100638.94;10381779;28;20132;-66
2023/12/25 14:21:19;;;;;;;1999.90;999.90;;;;;;;11.61;100.00;100637.63;10380796;28;20041;-66
2023/12/25 14:26:21;;;;;;;1999.90;999.90;;;;;;;11.58;100.00;100650.91;10380793;28;20128;-66
2023/12/25 14:31:24;;;;;;;1999.90;999.90;;;;;;;11.41;100.00;100640.69;10380215;28;20129;-66
2023/12/25 14:36:26;;;;;;;1999.90;999.90;;;;;;;11.38;100.00;100643.47;10380526;28;20049;-65
2023/12/25 14:41:29;;;;;;;1999.90;999.90;;;;;;;11.48;100.00;100647.19;10395096;28;20054;-66
2023/12/25 14:46:32;;;;;;;1999.90;999.90;;;;;;;11.41;100.00;100661.66;10378930;28;20049;-65
2023/12/25 14:51:34;;;;;;;1999.90;999.90;;;;;;;11.46;100.00;100657.78;10378774;28;20046;-65
2023/12/25 14:56:37;;;;;;;1999.90;999.90;;;;;;;11.62;100.00;100654.22;10379741;28;20056;-65
2023/12/25 15:01:39;;;;;;;1999.90;999.90;;;;;;;11.47;100.00;100651.63;10379193;28;20046;-66
2023/12/25 15:06:45;;;;;;;1999.90;999.90;;;;;;;11.51;100.00;100650.47;10379006;28;20508;-66
2023/12/25 15:11:48;;;;;;;1999.90;999.90;;;;;;;11.40;100.00;100667.81;10379144;28;20056;-66
2023/12/25 15:16:52;;;;;;;1999.90;999.90;;;;;;;11.42;100.00;100650.22;10378718;28;20080;-66
2023/12/25 15:21:54;;;;;;;1999.90;999.90;;;;;;;11.49;100.00;100643.66;10378432;28;20049;-66
2023/12/25 15:26:57;;;;;;;1999.90;999.90;;;;;;;11.41;100.00;100652.00;10377284;28;20053;-66
2023/12/25 15:31:59;;;;;;;1999.90;999.90;;;;;;;11.55;100.00;100650.28;10377159;28;20129;-66
2023/12/25 15:37:02;;;;;;;1999.90;999.90;;;;;;;11.56;100.00;100639.69;10376574;28;20057;-66
2023/12/25 15:42:04;;;;;;;1999.90;999.90;;;;;;;11.50;100.00;100654.03;10377796;28;20050;-66
2023/12/25 15:47:07;;;;;;;1999.90;999.90;;;;;;;11.57;100.00;100651.03;10377904;28;20053;-66
2023/12/25 15:52:10;;;;;;;1999.90;999.90;;;;;;;11.47;100.00;100645.53;10377460;28;20045;-66
2023/12/25 15:57:15;;;;;;;1999.90;999.90;;;;;;;11.60;100.00;100640.34;10392677;28;20050;-66
2023/12/25 16:02:17;;;;;;;1999.90;999.90;;;;;;;11.82;100.00;100650.31;10376833;28;20589;-63
2023/12/25 16:07:20;;;;;;;1999.90;999.90;;;;;;;11.80;100.00;100650.41;10377345;28;20045;-66
2023/12/25 16:12:23;;;;;;;1999.90;999.90;;;;;;;11.43;100.00;100663.25;10376672;28;20140;-65
2023/12/25 16:17:26;;;;;;;1999.90;999.90;;;;;;;11.77;100.00;100655.84;10374977;28;20453;-66
2023/12/25 16:22:30;;;;;;;1999.90;999.90;;;;;;;11.83;100.00;100651.97;10376258;28;20065;-66
2023/12/25 16:27:33;;;;;;;1999.90;999.90;;;;;;;11.88;100.00;100648.13;10391177;28;20093;-66
2023/12/25 16:32:35;;;;;;;1999.90;999.90;;;;;;;11.85;100.00;100660.56;10376018;28;20420;-66
2023/12/25 16:37:39;;;;;;;1999.90;999.90;;;;;;;11.88;100.00;100650.75;10374275;28;20060;-65
2023/12/25 16:42:42;;;;;;;1999.90;999.90;;;;;;;11.85;100.00;100647.47;10375460;28;20141;-66
2023/12/25 16:47:47;;;;;;;1999.90;999.90;;;;;;;11.89;100.00;100647.16;10375506;28;20057;-66
2023/12/25 16:52:50;;;;;;;1999.90;999.90;;;;;;;12.01;100.00;100635.06;10374152;28;20050;-66
2023/12/25 16:57:53;;;;;;;1999.90;999.90;;;;;;;11.93;100.00;100626.84;10375214;28;20116;-66
2023/12/25 17:02:55;;;;;;;1999.90;999.90;;;;;;;11.85;100.00;100635.22;10373865;28;20116;-66
2023/12/25 17:07:58;;;;;;;1999.90;999.90;;;;;;;12.01;100.00;100636.84;10374823;28;20053;-66
2023/12/25 17:13:00;;;;;;;1999.90;999.90;;;;;;;12.06;100.00;100626.88;10374114;28;20054;-66
2023/12/25 17:18:03;;;;;;;1999.90;999.90;;;;;;;11.93;100.00;100632.09;10374609;28;20045;-66
2023/12/25 17:23:08;;;;;;;1999.90;999.90;;;;;;;11.92;100.00;100632.19;10374406;28;20056;-66
2023/12/25 17:28:11;;;;;;;1999.90;999.90;;;;;;;11.94;100.00;100632.97;10374265;28;20104;-65
2023/12/25 17:33:14;;;;;;;1999.90;999.90;;;;;;;11.80;100.00;100639.91;10374501;28;20056;-63
2023/12/25 17:38:16;;;;;;;1999.90;999.90;;;;;;;11.79;100.00;100658.38;10373847;28;20053;-66
2023/12/25 17:43:19;;;;;;;1999.90;999.90;;;;;;;11.75;100.00;100667.34;10374162;28;20085;-66
2023/12/25 17:48:22;;;;;;;1999.90;999.90;;;;;;;11.80;100.00;100660.03;10373790;28;20405;-66
2023/12/25 17:53:25;;;;;;;1999.90;999.90;;;;;;;11.81;100.00;100669.59;10373682;28;20522;-66
2023/12/25 17:58:27;;;;;;;1999.90;999.90;;;;;;;11.75;100.00;100662.97;10373642;28;20053;-66
2023/12/25 18:03:30;;;;;;;1999.90;999.90;;;;;;;11.79;100.00;100664.44;10373453;28;20417;-66
2023/12/25 18:08:37;;;;;;;1999.90;999.90;;;;;;;11.70;100.00;100667.66;10372278;28;20497;-66
2023/12/25 18:13:41;;;;;;;1999.90;999.90;;;;;;;11.75;100.00;100672.59;10373384;28;20049;-66
2023/12/25 18:18:44;;;;;;;1999.90;999.90;;;;;;;11.59;100.00;100657.84;10373611;28;20093;-66
2023/12/25 18:23:46;;;;;;;1999.90;999.90;;;;;;;11.57;100.00;100662.38;10373960;28;20129;-66
2023/12/25 18:28:53;;;;;;;1999.90;999.90;;;;;;;11.45;100.00;100657.91;10379974;28;20054;-66
2023/12/25 18:33:55;;;;;;;1999.90;999.90;;;;;;;11.48;100.00;100644.59;10363271;28;20124;-66
2023/12/25 18:38:58;;;;;;;1999.90;999.90;;;;;;;11.59;100.00;100641.28;10380363;28;20058;-66
2023/12/25 18:44:00;;;;;;;1999.90;999.90;;;;;;;11.48;100.00;100624.47;10380547;28;20516;-66
2023/12/25 18:49:03;;;;;;;1999.90;999.90;;;;;;;11.64;100.00;100631.34;10380083;28;20052;-66
2023/12/25 18:54:05;;;;;;;1999.90;999.90;;;;;;;11.41;100.00;100620.53;10395371;28;20046;-66
2023/12/25 18:59:07;;;;;;;1999.90;999.90;;;;;;;11.80;100.00;100608.44;10379786;28;20052;-66
2023/12/25 19:04:10;;;;;;;1999.90;999.90;;;;;;;11.64;100.00;100602.50;10379371;28;20080;-66
2023/12/25 19:09:13;;;;;;;1999.90;999.90;;;;;;;11.47;100.00;100590.50;10379407;28;20054;-64
2023/12/25 19:14:15;;;;;;;1999.90;999.90;;;;;;;11.40;100.00;100578.69;10378900;28;20433;-64
2023/12/25 19:19:17;;;;;;;1999.90;999.90;;;;;;;11.59;100.00;100570.50;10378709;28;20064;-64
2023/12/25 19:24:20;;;;;;;1999.90;999.90;;;;;;;11.66;100.00;100556.03;10378592;28;20100;-64
2023/12/25 19:29:22;;;;;;;1999.90;999.90;;;;;;;11.13;100.00;100563.81;10378332;28;20046;-64
2023/12/25 19:34:25;;;;;;;1999.90;999.90;;;;;;;11.41;100.00;100559.41;10378315;28;20054;-64
2023/12/25 19:39:28;;;;;;;1999.90;999.90;;;;;;;11.39;100.00;100554.28;10377315;28;20077;-66
2023/12/25 19:44:30;;;;;;;1999.90;999.90;;;;;;;11.30;100.00;100552.25;10377985;28;20122;-66
2023/12/25 19:49:33;;;;;;;1999.90;999.90;;;;;;;11.40;100.00;100539.38;10377585;28;20057;-66
2023/12/25 19:54:35;;;;;;;1999.90;999.90;;;;;;;11.32;100.00;100537.25;10377605;28;20054;-66
2023/12/25 19:59:38;;;;;;;1999.90;999.90;;;;;;;11.47;100.00;100525.78;10377100;28;20488;-66
2023/12/25 20:04:40;;;;;;;1999.90;999.90;;;;;;;11.43;100.00;100528.69;10377642;28;20060;-67
2023/12/25 20:09:43;;;;;;;1999.90;999.90;;;;;;;11.50;100.00;100517.72;10377559;28;20045;-67
2023/12/25 20:14:45;;;;;;;1999.90;999.90;;;;;;;11.50;100.00;100522.97;10375525;28;20062;-67
2023/12/25 20:19:47;;;;;;;1999.90;999.90;;;;;;;11.55;100.00;100517.41;10376403;28;20069;-67
2023/12/25 20:24:50;;;;;;;1999.90;999.90;;;;;;;11.73;100.00;100511.88;10376246;28;20385;-67
2023/12/25 20:29:53;;;;;;;1999.90;999.90;;;;;;;11.63;100.00;100509.03;10376203;28;20133;-67
2023/12/25 20:34:55;;;;;;;1999.90;999.90;;;;;;;11.58;100.00;100501.47;10375929;28;20544;-67
2023/12/25 20:39:59;;;;;;;1999.90;999.90;;;;;;;11.56;100.00;100494.66;10375651;28;20076;-67
2023/12/25 20:45:01;;;;;;;1999.90;999.90;;;;;;;11.82;100.00;100492.94;10375773;28;20052;-67
2023/12/25 20:50:04;;;;;;;1999.90;999.90;;;;;;;11.68;100.00;100488.59;10374834;28;20060;-67
2023/12/25 20:55:08;;;;;;;1999.90;999.90;;;;;;;11.51;100.00;100472.19;10375206;28;20056;-67
2023/12/25 21:00:11;;;;;;;1999.90;999.90;;;;;;;11.58;100.00;100477.88;10375188;28;20046;-66
2023/12/25 21:05:14;;;;;;;1999.90;999.90;;;;;;;11.69;100.00;100474.53;10374729;28;20100;-67
2023/12/25 21:10:16;;;;;;;1999.90;999.90;;;;;;;11.62;100.00;100474.09;10374922;28;20049;-67
2023/12/25 21:15:19;;;;;;;1999.90;999.90;;;;;;;11.56;100.00;100471.88;10374493;28;20180;-66
2023/12/25 21:20:21;;;;;;;1999.90;999.90;;;;;;;11.45;100.00;100490.13;10374933;28;20100;-67
2023/12/25 21:25:24;;;;;;;1999.90;999.90;;;;;;;11.57;100.00;100473.59;10374358;28;20056;-67
2023/12/25 21:30:26;;;;;;;1999.90;999.90;;;;;;;11.41;100.00;100480.78;10374492;28;20077;-67
2023/12/25 21:35:30;;;;;;;1999.90;999.90;;;;;;;11.52;100.00;100460.78;10374191;28;20516;-67
2023/12/25 21:40:32;;;;;;;1999.90;999.90;;;;;;;11.42;100.00;100467.56;10373843;28;20503;-67